Airfield :
LOGIN :

Register | Disclaimer

   EN    FR    IT 

 










Legend :    VFR   Marginal VFR   IFR   Intensive IFR   Very Intensive IFR
Visi :
Ceiling :
>= 8 km
>= 3000ft
5 to 8 km
1000 to 3000 ft
1500m to 5 km
500 to 1000 ft
800 to 1500m
200 to 500 ft
< 800m
< 200 ft
Symbols :   Thunderstorms  Fog  Heavy snow  Heavy precipitations  Wind > 20 kt
SIGMETs :     Misc.  Thunderstorms  Icing  Turbulence  Mountain Waves  Volcanic Ashes






- Airport Elevation : 231 ft
- IATA code : WTN


EGXW - RAF Waddington

CURRENT METAR :
  • 210730Z 16006KT 3600 -DZ OVC003 13/13 Q0995 TEMPO 2000 RA OVC001 RMK YLO2 TEMPO RED

EXPIRED METARs :
  • 210650Z 16009KT 3600 BR OVC002 13/12 Q0995 TEMPO 2000 RA OVC001 RMK AMB TEMPO RED
  • 210550Z AUTO 15011KT 4200 BR OVC002/// 13/12 Q0995
  • 210450Z AUTO 15006KT 2800 BR BKN002/// SCT140/// 12/12 Q0995

TAF COR TAF EGXW
Valid from the 21 at 06:00 until the 22 at 00:00 UTC


210457Z 2106/2124 13008KT 9999 BKN005
TEMPO 2106/2116 4000 RA BKN002
PROB40
TEMPO 2106/2115 3000 +RA BKN001
BECMG 2115/2118 FEW008 BKN025
TEMPO 2116/2124 BKN012
PROB40
TEMPO 2116/2119 4000 RA SCT005



MET'MAP, your aeronautical weather chart ! - Copyright ORBIFLY December 2007 - Disclaimer

ORBIFLY MET'MAP TEAM :

Programming & Development : Alexandra Zaïnal
Concept & original design : Baudouin d'Aumeries
Assistance for programming : Marc-Olivier Méhu
Technical & hardware support : Manuel Goepfert

Contact : metmap@orbifly.com




SOURCES & CREDITS :

   NOAA